sensor_id;sensor_type;location;lat;lon;timestamp;P1;durP1;ratioP1;P2;durP2;ratioP2
5718;SDS011;2884;47.734;9.244;2024-03-08T00:00:05;31.83;;;19.35;;
5718;SDS011;2884;47.734;9.244;2024-03-08T00:02:40;33.08;;;19.73;;
5718;SDS011;2884;47.734;9.244;2024-03-08T00:05:07;35.63;;;19.55;;
5718;SDS011;2884;47.734;9.244;2024-03-08T00:07:36;31.60;;;19.35;;
5718;SDS011;2884;47.734;9.244;2024-03-08T00:10:06;32.75;;;19.83;;
5718;SDS011;2884;47.734;9.244;2024-03-08T00:15:15;29.33;;;19.13;;
5718;SDS011;2884;47.734;9.244;2024-03-08T00:17:41;33.40;;;19.60;;
5718;SDS011;2884;47.734;9.244;2024-03-08T00:20:25;35.88;;;19.98;;
5718;SDS011;2884;47.734;9.244;2024-03-08T00:22:51;34.00;;;20.00;;
5718;SDS011;2884;47.734;9.244;2024-03-08T00:25:17;34.00;;;21.73;;
5718;SDS011;2884;47.734;9.244;2024-03-08T00:27:43;38.33;;;22.05;;
5718;SDS011;2884;47.734;9.244;2024-03-08T00:30:09;34.00;;;20.63;;
5718;SDS011;2884;47.734;9.244;2024-03-08T00:32:38;35.00;;;21.60;;
5718;SDS011;2884;47.734;9.244;2024-03-08T00:35:03;36.40;;;21.97;;
5718;SDS011;2884;47.734;9.244;2024-03-08T00:37:29;33.15;;;19.25;;
5718;SDS011;2884;47.734;9.244;2024-03-08T00:39:55;30.17;;;19.50;;
5718;SDS011;2884;47.734;9.244;2024-03-08T00:42:20;31.50;;;18.07;;
5718;SDS011;2884;47.734;9.244;2024-03-08T00:44:47;29.88;;;18.58;;
5718;SDS011;2884;47.734;9.244;2024-03-08T00:47:13;26.35;;;16.77;;
5718;SDS011;2884;47.734;9.244;2024-03-08T00:49:41;29.42;;;18.30;;
5718;SDS011;2884;47.734;9.244;2024-03-08T00:52:07;29.30;;;18.27;;
5718;SDS011;2884;47.734;9.244;2024-03-08T00:54:33;24.90;;;17.40;;
5718;SDS011;2884;47.734;9.244;2024-03-08T00:56:59;29.98;;;18.23;;
5718;SDS011;2884;47.734;9.244;2024-03-08T00:59:28;27.25;;;17.13;;
5718;SDS011;2884;47.734;9.244;2024-03-08T01:01:58;28.15;;;17.38;;
5718;SDS011;2884;47.734;9.244;2024-03-08T01:04:25;28.75;;;17.00;;
5718;SDS011;2884;47.734;9.244;2024-03-08T01:06:53;28.95;;;16.73;;
5718;SDS011;2884;47.734;9.244;2024-03-08T01:09:19;31.13;;;16.70;;
5718;SDS011;2884;47.734;9.244;2024-03-08T01:11:45;26.17;;;16.70;;
5718;SDS011;2884;47.734;9.244;2024-03-08T01:14:11;34.40;;;16.45;;
5718;SDS011;2884;47.734;9.244;2024-03-08T01:16:37;30.13;;;16.73;;
5718;SDS011;2884;47.734;9.244;2024-03-08T01:19:02;27.27;;;16.17;;
5718;SDS011;2884;47.734;9.244;2024-03-08T01:21:29;24.02;;;15.48;;
5718;SDS011;2884;47.734;9.244;2024-03-08T01:23:54;23.77;;;15.73;;
5718;SDS011;2884;47.734;9.244;2024-03-08T01:26:19;22.90;;;15.10;;
5718;SDS011;2884;47.734;9.244;2024-03-08T01:28:45;25.13;;;15.97;;
5718;SDS011;2884;47.734;9.244;2024-03-08T01:31:11;28.07;;;16.33;;
5718;SDS011;2884;47.734;9.244;2024-03-08T01:33:37;24.25;;;15.30;;
5718;SDS011;2884;47.734;9.244;2024-03-08T01:36:06;25.58;;;15.73;;
5718;SDS011;2884;47.734;9.244;2024-03-08T01:38:31;27.27;;;16.23;;
5718;SDS011;2884;47.734;9.244;2024-03-08T01:40:57;24.40;;;16.00;;
5718;SDS011;2884;47.734;9.244;2024-03-08T01:43:26;25.37;;;15.07;;
5718;SDS011;2884;47.734;9.244;2024-03-08T01:45:56;25.63;;;16.77;;
5718;SDS011;2884;47.734;9.244;2024-03-08T01:48:25;25.38;;;15.32;;
5718;SDS011;2884;47.734;9.244;2024-03-08T01:50:50;23.93;;;15.07;;
5718;SDS011;2884;47.734;9.244;2024-03-08T01:53:17;23.70;;;15.23;;
5718;SDS011;2884;47.734;9.244;2024-03-08T01:55:44;23.05;;;15.50;;
5718;SDS011;2884;47.734;9.244;2024-03-08T01:58:10;23.15;;;15.27;;
5718;SDS011;2884;47.734;9.244;2024-03-08T02:00:36;28.63;;;16.10;;
5718;SDS011;2884;47.734;9.244;2024-03-08T02:03:07;23.98;;;14.73;;
5718;SDS011;2884;47.734;9.244;2024-03-08T02:05:33;24.10;;;15.17;;
5718;SDS011;2884;47.734;9.244;2024-03-08T02:07:59;20.50;;;13.47;;
5718;SDS011;2884;47.734;9.244;2024-03-08T02:10:24;23.53;;;15.17;;
5718;SDS011;2884;47.734;9.244;2024-03-08T02:12:50;21.60;;;14.13;;
5718;SDS011;2884;47.734;9.244;2024-03-08T02:15:16;22.90;;;14.50;;
5718;SDS011;2884;47.734;9.244;2024-03-08T02:17:41;30.93;;;16.23;;
5718;SDS011;2884;47.734;9.244;2024-03-08T02:20:07;29.20;;;16.40;;
5718;SDS011;2884;47.734;9.244;2024-03-08T02:22:34;27.17;;;16.30;;
5718;SDS011;2884;47.734;9.244;2024-03-08T02:25:01;23.08;;;15.27;;
5718;SDS011;2884;47.734;9.244;2024-03-08T02:27:28;32.22;;;14.30;;
5718;SDS011;2884;47.734;9.244;2024-03-08T02:29:55;21.30;;;14.52;;
5718;SDS011;2884;47.734;9.244;2024-03-08T02:32:21;20.40;;;14.30;;
5718;SDS011;2884;47.734;9.244;2024-03-08T02:34:47;23.40;;;15.13;;
5718;SDS011;2884;47.734;9.244;2024-03-08T02:37:13;24.90;;;15.63;;
5718;SDS011;2884;47.734;9.244;2024-03-08T02:39:39;22.73;;;15.10;;
5718;SDS011;2884;47.734;9.244;2024-03-08T02:42:04;23.70;;;14.77;;
5718;SDS011;2884;47.734;9.244;2024-03-08T02:44:30;25.43;;;15.37;;
5718;SDS011;2884;47.734;9.244;2024-03-08T02:46:55;24.37;;;15.00;;
5718;SDS011;2884;47.734;9.244;2024-03-08T02:49:21;27.07;;;15.83;;
5718;SDS011;2884;47.734;9.244;2024-03-08T02:51:47;25.93;;;16.77;;
5718;SDS011;2884;47.734;9.244;2024-03-08T02:54:12;26.30;;;15.47;;
5718;SDS011;2884;47.734;9.244;2024-03-08T02:56:38;22.40;;;14.80;;
5718;SDS011;2884;47.734;9.244;2024-03-08T02:59:03;26.13;;;15.40;;
5718;SDS011;2884;47.734;9.244;2024-03-08T03:01:29;24.90;;;16.13;;
5718;SDS011;2884;47.734;9.244;2024-03-08T03:03:55;24.10;;;14.90;;
5718;SDS011;2884;47.734;9.244;2024-03-08T03:06:21;25.65;;;16.45;;
5718;SDS011;2884;47.734;9.244;2024-03-08T03:08:46;23.30;;;15.70;;
5718;SDS011;2884;47.734;9.244;2024-03-08T03:11:12;25.17;;;17.27;;
5718;SDS011;2884;47.734;9.244;2024-03-08T03:13:39;23.75;;;15.35;;
5718;SDS011;2884;47.734;9.244;2024-03-08T03:16:05;25.65;;;15.63;;
5718;SDS011;2884;47.734;9.244;2024-03-08T03:18:30;24.97;;;15.10;;
5718;SDS011;2884;47.734;9.244;2024-03-08T03:20:58;22.98;;;15.18;;
5718;SDS011;2884;47.734;9.244;2024-03-08T03:23:24;25.60;;;16.55;;
5718;SDS011;2884;47.734;9.244;2024-03-08T03:25:51;24.33;;;16.05;;
5718;SDS011;2884;47.734;9.244;2024-03-08T03:28:17;27.13;;;15.95;;
5718;SDS011;2884;47.734;9.244;2024-03-08T03:30:46;22.73;;;15.20;;
5718;SDS011;2884;47.734;9.244;2024-03-08T03:33:11;27.52;;;17.15;;
5718;SDS011;2884;47.734;9.244;2024-03-08T03:35:39;26.95;;;16.48;;
5718;SDS011;2884;47.734;9.244;2024-03-08T03:38:06;26.55;;;16.23;;
5718;SDS011;2884;47.734;9.244;2024-03-08T03:40:41;24.27;;;15.10;;
5718;SDS011;2884;47.734;9.244;2024-03-08T03:43:07;28.52;;;16.67;;
5718;SDS011;2884;47.734;9.244;2024-03-08T03:45:32;26.77;;;16.47;;
5718;SDS011;2884;47.734;9.244;2024-03-08T03:48:00;23.20;;;16.00;;
5718;SDS011;2884;47.734;9.244;2024-03-08T03:50:29;27.65;;;16.85;;
5718;SDS011;2884;47.734;9.244;2024-03-08T03:52:55;26.53;;;16.50;;
5718;SDS011;2884;47.734;9.244;2024-03-08T03:55:20;25.80;;;16.87;;
5718;SDS011;2884;47.734;9.244;2024-03-08T03:57:47;22.95;;;15.32;;
5718;SDS011;2884;47.734;9.244;2024-03-08T04:00:12;26.47;;;15.77;;
5718;SDS011;2884;47.734;9.244;2024-03-08T04:02:38;23.63;;;15.00;;
5718;SDS011;2884;47.734;9.244;2024-03-08T04:05:05;26.83;;;16.00;;
5718;SDS011;2884;47.734;9.244;2024-03-08T04:07:31;24.10;;;15.30;;
5718;SDS011;2884;47.734;9.244;2024-03-08T04:09:57;21.30;;;14.70;;
5718;SDS011;2884;47.734;9.244;2024-03-08T04:12:22;25.00;;;15.37;;
5718;SDS011;2884;47.734;9.244;2024-03-08T04:14:48;25.60;;;16.23;;
5718;SDS011;2884;47.734;9.244;2024-03-08T04:17:13;28.63;;;17.73;;
5718;SDS011;2884;47.734;9.244;2024-03-08T04:19:39;24.20;;;16.30;;
5718;SDS011;2884;47.734;9.244;2024-03-08T04:22:08;26.90;;;16.17;;
5718;SDS011;2884;47.734;9.244;2024-03-08T04:24:33;27.63;;;17.08;;
5718;SDS011;2884;47.734;9.244;2024-03-08T04:26:59;29.67;;;16.77;;
5718;SDS011;2884;47.734;9.244;2024-03-08T04:29:25;26.80;;;17.50;;
5718;SDS011;2884;47.734;9.244;2024-03-08T04:31:51;25.83;;;16.42;;
5718;SDS011;2884;47.734;9.244;2024-03-08T04:34:20;27.10;;;17.70;;
5718;SDS011;2884;47.734;9.244;2024-03-08T04:36:46;28.90;;;17.02;;
5718;SDS011;2884;47.734;9.244;2024-03-08T04:39:13;29.50;;;18.70;;
5718;SDS011;2884;47.734;9.244;2024-03-08T04:41:44;29.30;;;17.88;;
5718;SDS011;2884;47.734;9.244;2024-03-08T04:44:10;25.02;;;16.23;;
5718;SDS011;2884;47.734;9.244;2024-03-08T04:46:38;28.70;;;17.98;;
5718;SDS011;2884;47.734;9.244;2024-03-08T04:49:03;32.73;;;18.70;;
5718;SDS011;2884;47.734;9.244;2024-03-08T04:51:29;26.30;;;18.00;;
5718;SDS011;2884;47.734;9.244;2024-03-08T04:53:54;26.10;;;16.90;;
5718;SDS011;2884;47.734;9.244;2024-03-08T04:56:20;26.50;;;16.70;;
5718;SDS011;2884;47.734;9.244;2024-03-08T04:58:46;26.00;;;16.92;;
5718;SDS011;2884;47.734;9.244;2024-03-08T05:01:12;25.13;;;16.40;;
5718;SDS011;2884;47.734;9.244;2024-03-08T05:03:38;27.65;;;16.73;;
5718;SDS011;2884;47.734;9.244;2024-03-08T05:06:06;28.45;;;17.40;;
5718;SDS011;2884;47.734;9.244;2024-03-08T05:08:32;29.00;;;18.70;;
5718;SDS011;2884;47.734;9.244;2024-03-08T05:11:01;29.40;;;18.00;;
5718;SDS011;2884;47.734;9.244;2024-03-08T05:13:29;25.73;;;16.52;;
5718;SDS011;2884;47.734;9.244;2024-03-08T05:15:56;27.98;;;17.83;;
5718;SDS011;2884;47.734;9.244;2024-03-08T05:18:26;25.25;;;16.58;;
5718;SDS011;2884;47.734;9.244;2024-03-08T05:20:54;29.30;;;19.20;;
5718;SDS011;2884;47.734;9.244;2024-03-08T05:23:20;28.47;;;17.63;;
5718;SDS011;2884;47.734;9.244;2024-03-08T05:25:48;29.45;;;18.95;;
5718;SDS011;2884;47.734;9.244;2024-03-08T05:28:17;25.48;;;17.05;;
5718;SDS011;2884;47.734;9.244;2024-03-08T05:30:42;27.57;;;17.27;;
5718;SDS011;2884;47.734;9.244;2024-03-08T05:33:08;25.60;;;17.53;;
5718;SDS011;2884;47.734;9.244;2024-03-08T05:35:36;29.80;;;18.13;;
5718;SDS011;2884;47.734;9.244;2024-03-08T05:38:02;27.60;;;17.40;;
5718;SDS011;2884;47.734;9.244;2024-03-08T05:40:28;28.10;;;18.03;;
5718;SDS011;2884;47.734;9.244;2024-03-08T05:42:57;27.60;;;17.60;;
5718;SDS011;2884;47.734;9.244;2024-03-08T05:45:24;26.88;;;18.23;;
5718;SDS011;2884;47.734;9.244;2024-03-08T05:47:50;25.30;;;16.43;;
5718;SDS011;2884;47.734;9.244;2024-03-08T05:50:17;27.25;;;17.48;;
5718;SDS011;2884;47.734;9.244;2024-03-08T05:52:43;29.43;;;18.50;;
5718;SDS011;2884;47.734;9.244;2024-03-08T05:55:08;30.10;;;18.20;;
5718;SDS011;2884;47.734;9.244;2024-03-08T05:57:35;31.20;;;18.80;;
5718;SDS011;2884;47.734;9.244;2024-03-08T06:00:05;28.30;;;18.08;;
5718;SDS011;2884;47.734;9.244;2024-03-08T06:02:31;24.85;;;16.60;;
5718;SDS011;2884;47.734;9.244;2024-03-08T06:04:56;30.57;;;17.87;;
5718;SDS011;2884;47.734;9.244;2024-03-08T06:07:22;29.30;;;17.57;;
5718;SDS011;2884;47.734;9.244;2024-03-08T06:09:47;26.70;;;17.67;;
5718;SDS011;2884;47.734;9.244;2024-03-08T06:12:13;24.93;;;16.33;;
5718;SDS011;2884;47.734;9.244;2024-03-08T06:14:44;26.15;;;17.65;;
5718;SDS011;2884;47.734;9.244;2024-03-08T06:17:10;30.17;;;17.63;;
5718;SDS011;2884;47.734;9.244;2024-03-08T06:19:36;26.63;;;16.90;;
5718;SDS011;2884;47.734;9.244;2024-03-08T06:22:02;28.97;;;17.43;;
5718;SDS011;2884;47.734;9.244;2024-03-08T06:24:31;27.75;;;17.95;;
5718;SDS011;2884;47.734;9.244;2024-03-08T06:26:57;29.55;;;18.27;;
5718;SDS011;2884;47.734;9.244;2024-03-08T06:29:22;28.30;;;18.97;;
5718;SDS011;2884;47.734;9.244;2024-03-08T06:31:48;28.25;;;18.15;;
5718;SDS011;2884;47.734;9.244;2024-03-08T06:34:15;29.50;;;17.90;;
5718;SDS011;2884;47.734;9.244;2024-03-08T06:36:40;29.40;;;18.57;;
5718;SDS011;2884;47.734;9.244;2024-03-08T06:39:06;30.07;;;17.57;;
5718;SDS011;2884;47.734;9.244;2024-03-08T06:41:35;27.60;;;17.60;;
5718;SDS011;2884;47.734;9.244;2024-03-08T06:44:01;25.75;;;17.42;;
5718;SDS011;2884;47.734;9.244;2024-03-08T06:46:27;28.23;;;18.37;;
5718;SDS011;2884;47.734;9.244;2024-03-08T06:48:53;26.80;;;17.35;;
5718;SDS011;2884;47.734;9.244;2024-03-08T06:51:19;29.70;;;17.23;;
5718;SDS011;2884;47.734;9.244;2024-03-08T06:53:44;27.17;;;17.60;;
5718;SDS011;2884;47.734;9.244;2024-03-08T06:56:10;30.63;;;19.00;;
5718;SDS011;2884;47.734;9.244;2024-03-08T06:58:35;28.63;;;17.40;;
5718;SDS011;2884;47.734;9.244;2024-03-08T07:01:01;27.90;;;18.73;;
5718;SDS011;2884;47.734;9.244;2024-03-08T07:03:29;28.23;;;18.48;;
5718;SDS011;2884;47.734;9.244;2024-03-08T07:05:55;26.67;;;17.87;;
5718;SDS011;2884;47.734;9.244;2024-03-08T07:08:23;29.02;;;17.83;;
5718;SDS011;2884;47.734;9.244;2024-03-08T07:10:49;29.35;;;16.98;;
5718;SDS011;2884;47.734;9.244;2024-03-08T07:13:14;31.33;;;18.20;;
5718;SDS011;2884;47.734;9.244;2024-03-08T07:15:40;27.15;;;17.13;;
5718;SDS011;2884;47.734;9.244;2024-03-08T07:18:07;30.83;;;17.55;;
5718;SDS011;2884;47.734;9.244;2024-03-08T07:20:34;29.83;;;17.38;;
5718;SDS011;2884;47.734;9.244;2024-03-08T07:23:00;29.02;;;17.38;;
5718;SDS011;2884;47.734;9.244;2024-03-08T07:25:26;26.53;;;16.33;;
5718;SDS011;2884;47.734;9.244;2024-03-08T07:27:55;25.42;;;16.45;;
5718;SDS011;2884;47.734;9.244;2024-03-08T07:30:21;24.83;;;16.02;;
5718;SDS011;2884;47.734;9.244;2024-03-08T07:33:06;27.17;;;17.33;;
5718;SDS011;2884;47.734;9.244;2024-03-08T07:35:32;25.67;;;16.27;;
5718;SDS011;2884;47.734;9.244;2024-03-08T07:37:58;27.73;;;16.05;;
5718;SDS011;2884;47.734;9.244;2024-03-08T07:40:25;27.45;;;17.67;;
5718;SDS011;2884;47.734;9.244;2024-03-08T07:42:51;26.20;;;17.33;;
5718;SDS011;2884;47.734;9.244;2024-03-08T07:45:17;27.13;;;16.03;;
5718;SDS011;2884;47.734;9.244;2024-03-08T07:47:43;29.73;;;17.13;;
5718;SDS011;2884;47.734;9.244;2024-03-08T07:50:08;24.53;;;16.07;;
5718;SDS011;2884;47.734;9.244;2024-03-08T07:52:34;28.70;;;15.10;;
5718;SDS011;2884;47.734;9.244;2024-03-08T07:55:02;25.52;;;15.93;;
5718;SDS011;2884;47.734;9.244;2024-03-08T07:57:31;26.40;;;16.10;;
5718;SDS011;2884;47.734;9.244;2024-03-08T07:59:57;23.25;;;15.07;;
5718;SDS011;2884;47.734;9.244;2024-03-08T08:02:23;24.37;;;16.30;;
5718;SDS011;2884;47.734;9.244;2024-03-08T08:04:48;26.07;;;15.17;;
5718;SDS011;2884;47.734;9.244;2024-03-08T08:07:14;27.57;;;16.17;;
5718;SDS011;2884;47.734;9.244;2024-03-08T08:09:40;26.73;;;16.87;;
5718;SDS011;2884;47.734;9.244;2024-03-08T08:12:10;29.30;;;17.70;;
5718;SDS011;2884;47.734;9.244;2024-03-08T08:14:38;32.08;;;17.00;;
5718;SDS011;2884;47.734;9.244;2024-03-08T08:17:04;26.13;;;16.43;;
5718;SDS011;2884;47.734;9.244;2024-03-08T08:19:30;23.70;;;15.27;;
5718;SDS011;2884;47.734;9.244;2024-03-08T08:21:57;26.40;;;16.98;;
5718;SDS011;2884;47.734;9.244;2024-03-08T08:24:23;23.77;;;15.43;;
5718;SDS011;2884;47.734;9.244;2024-03-08T08:26:49;21.85;;;14.07;;
5718;SDS011;2884;47.734;9.244;2024-03-08T08:29:14;26.50;;;14.80;;
5718;SDS011;2884;47.734;9.244;2024-03-08T08:31:41;22.42;;;14.48;;
5718;SDS011;2884;47.734;9.244;2024-03-08T08:34:08;24.10;;;14.23;;
5718;SDS011;2884;47.734;9.244;2024-03-08T08:36:34;21.45;;;12.75;;
5718;SDS011;2884;47.734;9.244;2024-03-08T08:39:00;24.38;;;14.45;;
5718;SDS011;2884;47.734;9.244;2024-03-08T08:41:28;22.55;;;14.82;;
5718;SDS011;2884;47.734;9.244;2024-03-08T08:43:54;19.90;;;14.00;;
5718;SDS011;2884;47.734;9.244;2024-03-08T08:46:21;23.77;;;14.52;;
5718;SDS011;2884;47.734;9.244;2024-03-08T08:48:47;20.77;;;13.00;;
5718;SDS011;2884;47.734;9.244;2024-03-08T08:51:12;19.80;;;11.07;;
5718;SDS011;2884;47.734;9.244;2024-03-08T08:53:39;19.50;;;12.70;;
5718;SDS011;2884;47.734;9.244;2024-03-08T08:56:08;20.88;;;12.90;;
5718;SDS011;2884;47.734;9.244;2024-03-08T08:58:44;21.02;;;13.55;;
5718;SDS011;2884;47.734;9.244;2024-03-08T09:01:10;17.88;;;11.90;;
5718;SDS011;2884;47.734;9.244;2024-03-08T09:03:36;20.17;;;12.50;;
5718;SDS011;2884;47.734;9.244;2024-03-08T09:06:03;18.97;;;12.87;;
5718;SDS011;2884;47.734;9.244;2024-03-08T09:08:29;19.45;;;11.70;;
5718;SDS011;2884;47.734;9.244;2024-03-08T09:10:55;18.27;;;12.40;;
5718;SDS011;2884;47.734;9.244;2024-03-08T09:13:21;19.43;;;12.50;;
5718;SDS011;2884;47.734;9.244;2024-03-08T09:15:47;20.63;;;12.70;;
5718;SDS011;2884;47.734;9.244;2024-03-08T09:18:12;19.47;;;11.37;;
5718;SDS011;2884;47.734;9.244;2024-03-08T09:20:38;17.90;;;11.80;;
5718;SDS011;2884;47.734;9.244;2024-03-08T09:23:06;18.40;;;11.40;;
5718;SDS011;2884;47.734;9.244;2024-03-08T09:25:31;19.87;;;12.07;;
5718;SDS011;2884;47.734;9.244;2024-03-08T09:27:58;17.40;;;10.93;;
5718;SDS011;2884;47.734;9.244;2024-03-08T09:30:24;19.77;;;12.27;;
5718;SDS011;2884;47.734;9.244;2024-03-08T09:32:49;16.80;;;11.50;;
5718;SDS011;2884;47.734;9.244;2024-03-08T09:35:16;18.10;;;11.87;;
5718;SDS011;2884;47.734;9.244;2024-03-08T09:37:42;18.07;;;11.97;;
5718;SDS011;2884;47.734;9.244;2024-03-08T09:40:07;18.70;;;12.60;;
5718;SDS011;2884;47.734;9.244;2024-03-08T09:42:41;16.42;;;11.02;;
5718;SDS011;2884;47.734;9.244;2024-03-08T09:45:10;15.55;;;11.07;;
5718;SDS011;2884;47.734;9.244;2024-03-08T09:47:36;18.10;;;10.63;;
5718;SDS011;2884;47.734;9.244;2024-03-08T09:50:06;16.92;;;11.30;;
5718;SDS011;2884;47.734;9.244;2024-03-08T09:52:37;14.73;;;10.13;;
5718;SDS011;2884;47.734;9.244;2024-03-08T09:55:06;15.00;;;10.37;;
5718;SDS011;2884;47.734;9.244;2024-03-08T09:57:32;17.20;;;10.97;;
5718;SDS011;2884;47.734;9.244;2024-03-08T09:59:59;15.80;;;11.43;;
5718;SDS011;2884;47.734;9.244;2024-03-08T10:02:24;15.17;;;10.80;;
5718;SDS011;2884;47.734;9.244;2024-03-08T10:04:51;17.80;;;10.53;;
5718;SDS011;2884;47.734;9.244;2024-03-08T10:07:18;22.23;;;12.57;;
5718;SDS011;2884;47.734;9.244;2024-03-08T10:09:44;18.80;;;11.10;;
5718;SDS011;2884;47.734;9.244;2024-03-08T10:12:18;17.23;;;11.03;;
5718;SDS011;2884;47.734;9.244;2024-03-08T10:14:45;15.33;;;10.03;;
5718;SDS011;2884;47.734;9.244;2024-03-08T10:17:11;16.03;;;10.67;;
5718;SDS011;2884;47.734;9.244;2024-03-08T10:19:37;24.43;;;11.00;;
5718;SDS011;2884;47.734;9.244;2024-03-08T10:22:04;19.80;;;9.50;;
5718;SDS011;2884;47.734;9.244;2024-03-08T10:24:30;15.47;;;10.73;;
5718;SDS011;2884;47.734;9.244;2024-03-08T10:26:59;15.60;;;10.67;;
5718;SDS011;2884;47.734;9.244;2024-03-08T10:29:32;14.43;;;9.30;;
5718;SDS011;2884;47.734;9.244;2024-03-08T10:31:58;16.70;;;10.60;;
5718;SDS011;2884;47.734;9.244;2024-03-08T10:34:23;14.67;;;9.77;;
5718;SDS011;2884;47.734;9.244;2024-03-08T10:36:50;15.13;;;10.07;;
5718;SDS011;2884;47.734;9.244;2024-03-08T10:41:42;21.20;;;11.87;;
5718;SDS011;2884;47.734;9.244;2024-03-08T10:44:36;17.70;;;11.63;;
5718;SDS011;2884;47.734;9.244;2024-03-08T10:49:51;18.33;;;11.87;;
5718;SDS011;2884;47.734;9.244;2024-03-08T10:52:20;19.33;;;11.53;;
5718;SDS011;2884;47.734;9.244;2024-03-08T10:54:47;18.20;;;11.73;;
5718;SDS011;2884;47.734;9.244;2024-03-08T10:57:14;17.60;;;12.07;;
5718;SDS011;2884;47.734;9.244;2024-03-08T10:59:43;20.10;;;13.37;;
5718;SDS011;2884;47.734;9.244;2024-03-08T11:02:11;17.80;;;12.47;;
5718;SDS011;2884;47.734;9.244;2024-03-08T11:04:37;17.93;;;11.33;;
5718;SDS011;2884;47.734;9.244;2024-03-08T11:07:03;19.50;;;12.07;;
5718;SDS011;2884;47.734;9.244;2024-03-08T11:09:35;21.70;;;12.10;;
5718;SDS011;2884;47.734;9.244;2024-03-08T11:15:00;20.17;;;12.83;;
5718;SDS011;2884;47.734;9.244;2024-03-08T11:20:02;17.50;;;12.63;;
5718;SDS011;2884;47.734;9.244;2024-03-08T11:22:33;20.23;;;13.30;;
5718;SDS011;2884;47.734;9.244;2024-03-08T11:24:59;19.30;;;12.53;;
5718;SDS011;2884;47.734;9.244;2024-03-08T11:27:30;20.87;;;13.43;;
5718;SDS011;2884;47.734;9.244;2024-03-08T11:30:00;16.97;;;12.23;;
5718;SDS011;2884;47.734;9.244;2024-03-08T11:32:50;19.80;;;11.23;;
5718;SDS011;2884;47.734;9.244;2024-03-08T11:35:21;16.30;;;11.10;;
5718;SDS011;2884;47.734;9.244;2024-03-08T11:37:50;18.17;;;11.70;;
5718;SDS011;2884;47.734;9.244;2024-03-08T11:40:15;16.50;;;12.00;;
5718;SDS011;2884;47.734;9.244;2024-03-08T11:42:45;16.87;;;11.53;;
5718;SDS011;2884;47.734;9.244;2024-03-08T11:45:14;17.50;;;11.90;;
5718;SDS011;2884;47.734;9.244;2024-03-08T11:47:42;21.63;;;13.30;;
5718;SDS011;2884;47.734;9.244;2024-03-08T11:50:10;20.33;;;13.30;;
5718;SDS011;2884;47.734;9.244;2024-03-08T11:52:36;19.70;;;13.27;;
5718;SDS011;2884;47.734;9.244;2024-03-08T11:55:02;19.50;;;12.80;;
5718;SDS011;2884;47.734;9.244;2024-03-08T11:57:28;20.10;;;14.27;;
5718;SDS011;2884;47.734;9.244;2024-03-08T11:59:55;20.10;;;12.43;;
5718;SDS011;2884;47.734;9.244;2024-03-08T12:02:24;16.30;;;11.63;;
5718;SDS011;2884;47.734;9.244;2024-03-08T12:05:00;22.80;;;14.40;;
5718;SDS011;2884;47.734;9.244;2024-03-08T12:07:31;20.53;;;13.70;;
5718;SDS011;2884;47.734;9.244;2024-03-08T12:12:48;21.70;;;12.50;;
5718;SDS011;2884;47.734;9.244;2024-03-08T12:15:16;18.80;;;12.70;;
5718;SDS011;2884;47.734;9.244;2024-03-08T12:17:43;20.73;;;12.67;;
5718;SDS011;2884;47.734;9.244;2024-03-08T12:20:14;16.80;;;11.97;;
5718;SDS011;2884;47.734;9.244;2024-03-08T12:22:41;18.90;;;13.67;;
5718;SDS011;2884;47.734;9.244;2024-03-08T12:25:08;20.90;;;13.17;;
5718;SDS011;2884;47.734;9.244;2024-03-08T12:27:36;18.90;;;13.07;;
5718;SDS011;2884;47.734;9.244;2024-03-08T12:30:23;17.83;;;12.10;;
5718;SDS011;2884;47.734;9.244;2024-03-08T12:33:01;14.97;;;10.37;;
5718;SDS011;2884;47.734;9.244;2024-03-08T12:35:27;18.27;;;11.83;;
5718;SDS011;2884;47.734;9.244;2024-03-08T12:37:55;17.83;;;11.67;;
5718;SDS011;2884;47.734;9.244;2024-03-08T12:40:28;18.70;;;12.33;;
5718;SDS011;2884;47.734;9.244;2024-03-08T12:42:55;15.90;;;10.97;;
5718;SDS011;2884;47.734;9.244;2024-03-08T12:45:21;17.80;;;12.90;;
5718;SDS011;2884;47.734;9.244;2024-03-08T12:47:49;20.13;;;12.37;;
5718;SDS011;2884;47.734;9.244;2024-03-08T12:50:22;14.60;;;11.47;;
5718;SDS011;2884;47.734;9.244;2024-03-08T12:52:48;18.23;;;11.93;;
5718;SDS011;2884;47.734;9.244;2024-03-08T12:55:14;18.97;;;13.40;;
5718;SDS011;2884;47.734;9.244;2024-03-08T12:57:42;18.80;;;12.70;;
5718;SDS011;2884;47.734;9.244;2024-03-08T13:00:07;22.03;;;13.33;;
5718;SDS011;2884;47.734;9.244;2024-03-08T13:02:41;19.40;;;13.13;;
5718;SDS011;2884;47.734;9.244;2024-03-08T13:05:07;16.93;;;12.10;;
5718;SDS011;2884;47.734;9.244;2024-03-08T13:07:35;19.17;;;13.40;;
5718;SDS011;2884;47.734;9.244;2024-03-08T13:10:02;18.30;;;12.90;;
5718;SDS011;2884;47.734;9.244;2024-03-08T13:12:29;20.13;;;13.20;;
5718;SDS011;2884;47.734;9.244;2024-03-08T13:14:55;22.37;;;13.77;;
5718;SDS011;2884;47.734;9.244;2024-03-08T13:17:25;21.50;;;13.93;;
5718;SDS011;2884;47.734;9.244;2024-03-08T13:19:50;20.37;;;14.43;;
5718;SDS011;2884;47.734;9.244;2024-03-08T13:22:16;17.87;;;12.40;;
5718;SDS011;2884;47.734;9.244;2024-03-08T13:24:43;18.10;;;12.97;;
5718;SDS011;2884;47.734;9.244;2024-03-08T13:27:10;21.23;;;13.07;;
5718;SDS011;2884;47.734;9.244;2024-03-08T13:29:46;18.77;;;13.27;;
5718;SDS011;2884;47.734;9.244;2024-03-08T13:32:13;19.70;;;12.93;;
5718;SDS011;2884;47.734;9.244;2024-03-08T13:34:42;21.50;;;14.40;;
5718;SDS011;2884;47.734;9.244;2024-03-08T13:37:09;18.90;;;13.53;;
5718;SDS011;2884;47.734;9.244;2024-03-08T13:39:35;22.10;;;13.50;;
5718;SDS011;2884;47.734;9.244;2024-03-08T13:42:11;16.57;;;11.83;;
5718;SDS011;2884;47.734;9.244;2024-03-08T13:44:48;19.03;;;12.73;;
5718;SDS011;2884;47.734;9.244;2024-03-08T13:47:15;21.03;;;13.63;;
5718;SDS011;2884;47.734;9.244;2024-03-08T13:49:42;16.37;;;11.83;;
5718;SDS011;2884;47.734;9.244;2024-03-08T13:52:09;18.30;;;12.60;;
5718;SDS011;2884;47.734;9.244;2024-03-08T13:54:41;22.60;;;14.20;;
5718;SDS011;2884;47.734;9.244;2024-03-08T13:57:07;24.07;;;13.90;;
5718;SDS011;2884;47.734;9.244;2024-03-08T13:59:33;18.33;;;12.87;;
5718;SDS011;2884;47.734;9.244;2024-03-08T14:02:00;17.57;;;12.50;;
5718;SDS011;2884;47.734;9.244;2024-03-08T14:04:45;19.33;;;12.20;;
5718;SDS011;2884;47.734;9.244;2024-03-08T14:07:12;17.60;;;12.33;;
5718;SDS011;2884;47.734;9.244;2024-03-08T14:09:38;20.20;;;13.73;;
5718;SDS011;2884;47.734;9.244;2024-03-08T14:12:07;16.03;;;12.40;;
5718;SDS011;2884;47.734;9.244;2024-03-08T14:14:33;18.30;;;11.43;;
5718;SDS011;2884;47.734;9.244;2024-03-08T14:17:00;28.60;;;13.30;;
5718;SDS011;2884;47.734;9.244;2024-03-08T14:19:27;17.23;;;11.57;;
5718;SDS011;2884;47.734;9.244;2024-03-08T14:21:56;19.33;;;13.10;;
5718;SDS011;2884;47.734;9.244;2024-03-08T14:24:24;19.07;;;12.00;;
5718;SDS011;2884;47.734;9.244;2024-03-08T14:26:50;20.63;;;11.83;;
5718;SDS011;2884;47.734;9.244;2024-03-08T14:29:16;19.53;;;13.10;;
5718;SDS011;2884;47.734;9.244;2024-03-08T14:31:43;17.50;;;12.10;;
5718;SDS011;2884;47.734;9.244;2024-03-08T14:34:09;18.83;;;11.47;;
5718;SDS011;2884;47.734;9.244;2024-03-08T14:36:34;17.13;;;12.20;;
5718;SDS011;2884;47.734;9.244;2024-03-08T14:39:00;15.60;;;12.10;;
5718;SDS011;2884;47.734;9.244;2024-03-08T14:41:26;17.07;;;11.50;;
5718;SDS011;2884;47.734;9.244;2024-03-08T14:43:52;16.57;;;11.97;;
5718;SDS011;2884;47.734;9.244;2024-03-08T14:46:18;15.50;;;11.10;;
5718;SDS011;2884;47.734;9.244;2024-03-08T14:48:46;16.80;;;10.97;;
5718;SDS011;2884;47.734;9.244;2024-03-08T14:51:12;18.23;;;12.23;;
5718;SDS011;2884;47.734;9.244;2024-03-08T14:53:42;25.23;;;13.40;;
5718;SDS011;2884;47.734;9.244;2024-03-08T14:56:10;17.67;;;12.03;;
5718;SDS011;2884;47.734;9.244;2024-03-08T14:58:41;23.20;;;12.23;;
5718;SDS011;2884;47.734;9.244;2024-03-08T15:01:06;20.80;;;12.33;;
5718;SDS011;2884;47.734;9.244;2024-03-08T15:03:35;19.27;;;13.17;;